sensor_id;sensor_type;location;lat;lon;timestamp;P1;durP1;ratioP1;P2;durP2;ratioP2
31974;SDS011;18500;43.618;1.474;2023-11-19T08:11:26;459.05;;;431.35;;
31974;SDS011;18500;43.618;1.474;2023-11-19T08:13:51;472.52;;;443.83;;
31974;SDS011;18500;43.618;1.474;2023-11-19T08:16:17;461.95;;;434.25;;
31974;SDS011;18500;43.618;1.474;2023-11-19T08:18:43;453.00;;;426.17;;
31974;SDS011;18500;43.618;1.474;2023-11-19T08:21:08;462.58;;;434.60;;
31974;SDS011;18500;43.618;1.474;2023-11-19T08:23:35;481.92;;;452.90;;
31974;SDS011;18500;43.618;1.474;2023-11-19T08:26:01;537.13;;;504.05;;
31974;SDS011;18500;43.618;1.474;2023-11-19T08:28:27;531.50;;;498.70;;
31974;SDS011;18500;43.618;1.474;2023-11-19T08:30:52;542.35;;;508.73;;
31974;SDS011;18500;43.618;1.474;2023-11-19T08:33:18;550.10;;;515.60;;
31974;SDS011;18500;43.618;1.474;2023-11-19T08:35:44;510.40;;;479.48;;
31974;SDS011;18500;43.618;1.474;2023-11-19T08:38:10;475.65;;;447.27;;
31974;SDS011;18500;43.618;1.474;2023-11-19T08:40:36;509.30;;;478.65;;
31974;SDS011;18500;43.618;1.474;2023-11-19T08:43:03;493.58;;;464.40;;
31974;SDS011;18500;43.618;1.474;2023-11-19T08:45:29;506.50;;;476.05;;
31974;SDS011;18500;43.618;1.474;2023-11-19T08:47:56;549.08;;;515.55;;
31974;SDS011;18500;43.618;1.474;2023-11-19T08:50:22;547.47;;;514.40;;
31974;SDS011;18500;43.618;1.474;2023-11-19T08:52:47;560.10;;;525.38;;
31974;SDS011;18500;43.618;1.474;2023-11-19T08:55:13;552.50;;;518.00;;
31974;SDS011;18500;43.618;1.474;2023-11-19T08:57:39;568.05;;;532.60;;
31974;SDS011;18500;43.618;1.474;2023-11-19T09:00:04;566.60;;;531.50;;
31974;SDS011;18500;43.618;1.474;2023-11-19T09:02:34;582.97;;;546.70;;
31974;SDS011;18500;43.618;1.474;2023-11-19T09:05:02;593.80;;;555.80;;
31974;SDS011;18500;43.618;1.474;2023-11-19T09:07:28;585.05;;;548.22;;
31974;SDS011;18500;43.618;1.474;2023-11-19T09:09:53;590.13;;;553.17;;
31974;SDS011;18500;43.618;1.474;2023-11-19T09:12:19;599.45;;;561.75;;
31974;SDS011;18500;43.618;1.474;2023-11-19T09:14:44;578.50;;;542.28;;
31974;SDS011;18500;43.618;1.474;2023-11-19T09:17:10;559.58;;;523.58;;
31974;SDS011;18500;43.618;1.474;2023-11-19T09:19:37;576.33;;;538.83;;
31974;SDS011;18500;43.618;1.474;2023-11-19T09:22:03;572.10;;;535.78;;
31974;SDS011;18500;43.618;1.474;2023-11-19T09:24:29;636.28;;;594.72;;
31974;SDS011;18500;43.618;1.474;2023-11-19T09:26:54;666.60;;;622.75;;
31974;SDS011;18500;43.618;1.474;2023-11-19T09:29:21;706.13;;;658.97;;
31974;SDS011;18500;43.618;1.474;2023-11-19T09:31:47;731.28;;;682.25;;
31974;SDS011;18500;43.618;1.474;2023-11-19T09:34:12;724.75;;;676.20;;
31974;SDS011;18500;43.618;1.474;2023-11-19T09:36:38;716.38;;;668.63;;
31974;SDS011;18500;43.618;1.474;2023-11-19T09:39:08;713.08;;;665.03;;
31974;SDS011;18500;43.618;1.474;2023-11-19T09:41:34;694.47;;;648.42;;
31974;SDS011;18500;43.618;1.474;2023-11-19T09:44:00;666.47;;;622.63;;
31974;SDS011;18500;43.618;1.474;2023-11-19T09:46:26;536.20;;;501.88;;
31974;SDS011;18500;43.618;1.474;2023-11-19T09:48:54;528.72;;;495.65;;
31974;SDS011;18500;43.618;1.474;2023-11-19T09:51:22;474.80;;;445.42;;
31974;SDS011;18500;43.618;1.474;2023-11-19T09:53:48;459.23;;;431.98;;
31974;SDS011;18500;43.618;1.474;2023-11-19T09:56:14;452.00;;;425.38;;
31974;SDS011;18500;43.618;1.474;2023-11-19T09:58:42;513.35;;;482.80;;
31974;SDS011;18500;43.618;1.474;2023-11-19T10:01:08;491.63;;;462.70;;
31974;SDS011;18500;43.618;1.474;2023-11-19T10:03:37;484.23;;;455.42;;
31974;SDS011;18500;43.618;1.474;2023-11-19T10:06:07;460.27;;;433.48;;
31974;SDS011;18500;43.618;1.474;2023-11-19T10:08:34;511.70;;;480.80;;
31974;SDS011;18500;43.618;1.474;2023-11-19T10:11:02;497.75;;;468.08;;
31974;SDS011;18500;43.618;1.474;2023-11-19T10:13:29;489.35;;;460.40;;
31974;SDS011;18500;43.618;1.474;2023-11-19T10:15:57;533.65;;;499.70;;
31974;SDS011;18500;43.618;1.474;2023-11-19T10:18:23;628.55;;;587.15;;
31974;SDS011;18500;43.618;1.474;2023-11-19T10:20:51;661.47;;;616.47;;
31974;SDS011;18500;43.618;1.474;2023-11-19T10:23:16;583.20;;;544.22;;
31974;SDS011;18500;43.618;1.474;2023-11-19T10:25:42;554.47;;;518.38;;
31974;SDS011;18500;43.618;1.474;2023-11-19T10:28:08;554.65;;;518.97;;
31974;SDS011;18500;43.618;1.474;2023-11-19T10:30:33;509.02;;;478.75;;
31974;SDS011;18500;43.618;1.474;2023-11-19T10:35:56;530.58;;;497.30;;
31974;SDS011;18500;43.618;1.474;2023-11-19T10:38:27;519.53;;;487.05;;
31974;SDS011;18500;43.618;1.474;2023-11-19T10:40:53;564.60;;;529.40;;
31974;SDS011;18500;43.618;1.474;2023-11-19T10:43:22;555.15;;;519.53;;
31974;SDS011;18500;43.618;1.474;2023-11-19T10:45:48;494.75;;;463.98;;
31974;SDS011;18500;43.618;1.474;2023-11-19T10:48:14;446.48;;;419.35;;
31974;SDS011;18500;43.618;1.474;2023-11-19T10:50:41;453.20;;;425.67;;
31974;SDS011;18500;43.618;1.474;2023-11-19T10:53:08;433.30;;;407.55;;
31974;SDS011;18500;43.618;1.474;2023-11-19T10:55:36;398.90;;;375.52;;
31974;SDS011;18500;43.618;1.474;2023-11-19T10:58:06;388.33;;;364.77;;
31974;SDS011;18500;43.618;1.474;2023-11-19T11:03:08;444.05;;;416.35;;
31974;SDS011;18500;43.618;1.474;2023-11-19T11:05:46;461.52;;;431.15;;
31974;SDS011;18500;43.618;1.474;2023-11-19T11:08:13;491.10;;;459.05;;
31974;SDS011;18500;43.618;1.474;2023-11-19T11:10:42;419.10;;;394.40;;
31974;SDS011;18500;43.618;1.474;2023-11-19T11:13:10;450.55;;;422.83;;
31974;SDS011;18500;43.618;1.474;2023-11-19T11:15:38;466.35;;;437.27;;
31974;SDS011;18500;43.618;1.474;2023-11-19T11:18:07;461.15;;;432.10;;
31974;SDS011;18500;43.618;1.474;2023-11-19T11:20:34;474.20;;;445.00;;
31974;SDS011;18500;43.618;1.474;2023-11-19T11:28:41;696.08;;;647.05;;
31974;SDS011;18500;43.618;1.474;2023-11-19T11:33:57;701.80;;;651.47;;
31974;SDS011;18500;43.618;1.474;2023-11-19T11:36:25;886.45;;;816.03;;
31974;SDS011;18500;43.618;1.474;2023-11-19T11:38:51;941.97;;;863.95;;
31974;SDS011;18500;43.618;1.474;2023-11-19T11:41:19;729.15;;;673.45;;
31974;SDS011;18500;43.618;1.474;2023-11-19T11:43:51;784.60;;;727.90;;
31974;SDS011;18500;43.618;1.474;2023-11-19T11:49:01;937.08;;;862.50;;
31974;SDS011;18500;43.618;1.474;2023-11-19T11:54:11;972.10;;;891.17;;
31974;SDS011;18500;43.618;1.474;2023-11-19T12:02:05;935.05;;;855.83;;
31974;SDS011;18500;43.618;1.474;2023-11-19T12:04:36;976.55;;;896.55;;
31974;SDS011;18500;43.618;1.474;2023-11-19T12:07:03;966.22;;;892.65;;
31974;SDS011;18500;43.618;1.474;2023-11-19T12:09:30;859.65;;;794.85;;
31974;SDS011;18500;43.618;1.474;2023-11-19T12:20:02;683.35;;;633.80;;
31974;SDS011;18500;43.618;1.474;2023-11-19T12:22:31;776.85;;;716.42;;
31974;SDS011;18500;43.618;1.474;2023-11-19T12:24:56;661.88;;;614.53;;
31974;SDS011;18500;43.618;1.474;2023-11-19T12:27:23;721.10;;;668.00;;
31974;SDS011;18500;43.618;1.474;2023-11-19T12:29:48;764.78;;;705.75;;
31974;SDS011;18500;43.618;1.474;2023-11-19T12:32:14;804.58;;;739.70;;
31974;SDS011;18500;43.618;1.474;2023-11-19T12:34:40;911.10;;;828.70;;
31974;SDS011;18500;43.618;1.474;2023-11-19T12:37:06;908.25;;;825.35;;
31974;SDS011;18500;43.618;1.474;2023-11-19T12:39:33;950.33;;;860.15;;
31974;SDS011;18500;43.618;1.474;2023-11-19T12:41:59;874.33;;;802.17;;
31974;SDS011;18500;43.618;1.474;2023-11-19T12:44:25;976.00;;;884.13;;
31974;SDS011;18500;43.618;1.474;2023-11-19T12:49:29;780.70;;;720.55;;
31974;SDS011;18500;43.618;1.474;2023-11-19T12:51:55;761.13;;;703.72;;
31974;SDS011;18500;43.618;1.474;2023-11-19T12:54:31;703.38;;;649.22;;
31974;SDS011;18500;43.618;1.474;2023-11-19T12:56:57;734.72;;;679.05;;
31974;SDS011;18500;43.618;1.474;2023-11-19T12:59:23;688.28;;;638.60;;
31974;SDS011;18500;43.618;1.474;2023-11-19T13:04:21;820.28;;;758.88;;
31974;SDS011;18500;43.618;1.474;2023-11-19T13:06:46;861.83;;;796.60;;
31974;SDS011;18500;43.618;1.474;2023-11-19T13:09:22;744.92;;;692.47;;
31974;SDS011;18500;43.618;1.474;2023-11-19T13:11:49;979.55;;;887.95;;
31974;SDS011;18500;43.618;1.474;2023-11-19T13:14:15;870.58;;;802.17;;
31974;SDS011;18500;43.618;1.474;2023-11-19T13:16:41;1007.88;;;916.33;;
31974;SDS011;18500;43.618;1.474;2023-11-19T13:19:07;978.92;;;895.85;;
31974;SDS011;18500;43.618;1.474;2023-11-19T13:21:34;956.92;;;873.67;;
31974;SDS011;18500;43.618;1.474;2023-11-19T13:24:00;980.05;;;889.28;;
31974;SDS011;18500;43.618;1.474;2023-11-19T13:26:26;949.83;;;870.35;;
31974;SDS011;18500;43.618;1.474;2023-11-19T13:28:51;957.75;;;871.53;;
31974;SDS011;18500;43.618;1.474;2023-11-19T13:31:17;991.20;;;899.42;;
31974;SDS011;18500;43.618;1.474;2023-11-19T13:33:42;1038.50;;;941.90;;
31974;SDS011;18500;43.618;1.474;2023-11-19T13:36:08;938.92;;;858.17;;
31974;SDS011;18500;43.618;1.474;2023-11-19T13:38:34;992.60;;;904.10;;
31974;SDS011;18500;43.618;1.474;2023-11-19T13:41:01;889.97;;;820.03;;
31974;SDS011;18500;43.618;1.474;2023-11-19T13:43:29;883.10;;;812.08;;
31974;SDS011;18500;43.618;1.474;2023-11-19T13:45:55;976.50;;;888.47;;
31974;SDS011;18500;43.618;1.474;2023-11-19T13:48:22;926.22;;;850.08;;
31974;SDS011;18500;43.618;1.474;2023-11-19T13:50:48;837.03;;;767.28;;
31974;SDS011;18500;43.618;1.474;2023-11-19T13:53:14;911.25;;;831.45;;
31974;SDS011;18500;43.618;1.474;2023-11-19T13:55:39;991.30;;;898.80;;
31974;SDS011;18500;43.618;1.474;2023-11-19T13:58:05;1152.95;;;999.90;;
31974;SDS011;18500;43.618;1.474;2023-11-19T14:00:30;1009.83;;;922.80;;
31974;SDS011;18500;43.618;1.474;2023-11-19T14:02:56;982.58;;;899.75;;
31974;SDS011;18500;43.618;1.474;2023-11-19T14:05:22;971.45;;;892.28;;
31974;SDS011;18500;43.618;1.474;2023-11-19T14:07:48;777.38;;;720.67;;
31974;SDS011;18500;43.618;1.474;2023-11-19T14:10:15;969.08;;;880.75;;
31974;SDS011;18500;43.618;1.474;2023-11-19T14:12:41;1138.93;;;999.90;;
31974;SDS011;18500;43.618;1.474;2023-11-19T14:15:07;1095.53;;;992.65;;
31974;SDS011;18500;43.618;1.474;2023-11-19T14:17:35;1088.47;;;983.88;;
31974;SDS011;18500;43.618;1.474;2023-11-19T14:20:01;1214.30;;;999.90;;
31974;SDS011;18500;43.618;1.474;2023-11-19T14:22:40;1115.78;;;999.90;;
31974;SDS011;18500;43.618;1.474;2023-11-19T14:25:08;1120.57;;;999.90;;
31974;SDS011;18500;43.618;1.474;2023-11-19T14:27:38;1194.78;;;999.90;;
31974;SDS011;18500;43.618;1.474;2023-11-19T14:30:06;1180.10;;;999.90;;
31974;SDS011;18500;43.618;1.474;2023-11-19T14:32:33;1166.18;;;999.90;;
31974;SDS011;18500;43.618;1.474;2023-11-19T14:35:00;1119.32;;;999.70;;
31974;SDS011;18500;43.618;1.474;2023-11-19T14:37:25;1101.07;;;987.70;;
31974;SDS011;18500;43.618;1.474;2023-11-19T14:39:51;1056.50;;;949.47;;
31974;SDS011;18500;43.618;1.474;2023-11-19T14:42:17;1166.55;;;999.90;;
31974;SDS011;18500;43.618;1.474;2023-11-19T14:44:42;1183.22;;;999.90;;
31974;SDS011;18500;43.618;1.474;2023-11-19T14:47:08;1076.80;;;969.05;;
31974;SDS011;18500;43.618;1.474;2023-11-19T14:49:34;1061.82;;;957.30;;
31974;SDS011;18500;43.618;1.474;2023-11-19T14:52:00;1298.90;;;999.90;;
31974;SDS011;18500;43.618;1.474;2023-11-19T14:54:26;979.75;;;891.40;;
31974;SDS011;18500;43.618;1.474;2023-11-19T14:56:51;1140.45;;;997.55;;
31974;SDS011;18500;43.618;1.474;2023-11-19T14:59:17;1282.68;;;999.90;;
31974;SDS011;18500;43.618;1.474;2023-11-19T15:01:44;1531.57;;;999.90;;
31974;SDS011;18500;43.618;1.474;2023-11-19T15:04:10;1281.50;;;999.90;;
31974;SDS011;18500;43.618;1.474;2023-11-19T15:06:36;961.88;;;872.75;;
31974;SDS011;18500;43.618;1.474;2023-11-19T15:09:02;1161.80;;;999.90;;
31974;SDS011;18500;43.618;1.474;2023-11-19T15:11:28;1278.80;;;999.90;;
31974;SDS011;18500;43.618;1.474;2023-11-19T15:13:54;1128.88;;;999.90;;
31974;SDS011;18500;43.618;1.474;2023-11-19T15:16:20;1336.38;;;999.90;;
31974;SDS011;18500;43.618;1.474;2023-11-19T15:18:51;1156.63;;;999.90;;
31974;SDS011;18500;43.618;1.474;2023-11-19T15:21:17;1161.20;;;999.90;;
31974;SDS011;18500;43.618;1.474;2023-11-19T15:23:43;1272.57;;;999.90;;
31974;SDS011;18500;43.618;1.474;2023-11-19T15:26:09;1122.20;;;993.35;;
31974;SDS011;18500;43.618;1.474;2023-11-19T15:28:36;1074.55;;;964.45;;
31974;SDS011;18500;43.618;1.474;2023-11-19T15:31:02;1008.08;;;904.78;;
31974;SDS011;18500;43.618;1.474;2023-11-19T15:33:27;1056.03;;;950.35;;
31974;SDS011;18500;43.618;1.474;2023-11-19T15:35:53;968.70;;;880.55;;
31974;SDS011;18500;43.618;1.474;2023-11-19T15:38:19;841.17;;;775.60;;
31974;SDS011;18500;43.618;1.474;2023-11-19T15:40:44;1026.43;;;934.78;;
31974;SDS011;18500;43.618;1.474;2023-11-19T15:43:10;1186.10;;;999.90;;
31974;SDS011;18500;43.618;1.474;2023-11-19T15:45:36;1181.53;;;999.90;;
31974;SDS011;18500;43.618;1.474;2023-11-19T15:48:04;1156.95;;;999.90;;
31974;SDS011;18500;43.618;1.474;2023-11-19T15:50:30;1146.25;;;999.90;;
31974;SDS011;18500;43.618;1.474;2023-11-19T15:52:57;1109.72;;;987.63;;
31974;SDS011;18500;43.618;1.474;2023-11-19T15:55:24;1037.88;;;935.25;;
31974;SDS011;18500;43.618;1.474;2023-11-19T15:57:49;1088.65;;;969.47;;
31974;SDS011;18500;43.618;1.474;2023-11-19T16:00:15;1075.72;;;958.10;;
31974;SDS011;18500;43.618;1.474;2023-11-19T16:02:42;1060.22;;;945.83;;
31974;SDS011;18500;43.618;1.474;2023-11-19T16:05:08;1056.78;;;947.55;;
31974;SDS011;18500;43.618;1.474;2023-11-19T16:07:34;1043.45;;;939.00;;
31974;SDS011;18500;43.618;1.474;2023-11-19T16:10:00;1010.40;;;912.40;;
31974;SDS011;18500;43.618;1.474;2023-11-19T16:12:29;958.65;;;877.15;;
31974;SDS011;18500;43.618;1.474;2023-11-19T16:14:55;975.08;;;890.72;;
31974;SDS011;18500;43.618;1.474;2023-11-19T16:17:20;841.63;;;769.30;;
31974;SDS011;18500;43.618;1.474;2023-11-19T16:19:46;848.63;;;776.83;;
31974;SDS011;18500;43.618;1.474;2023-11-19T16:22:11;900.90;;;829.47;;
31974;SDS011;18500;43.618;1.474;2023-11-19T16:24:38;856.45;;;792.40;;
31974;SDS011;18500;43.618;1.474;2023-11-19T16:27:04;795.30;;;737.22;;
31974;SDS011;18500;43.618;1.474;2023-11-19T16:29:30;804.45;;;744.88;;
31974;SDS011;18500;43.618;1.474;2023-11-19T16:31:55;646.03;;;600.60;;
31974;SDS011;18500;43.618;1.474;2023-11-19T16:34:21;683.72;;;635.67;;
31974;SDS011;18500;43.618;1.474;2023-11-19T16:36:47;670.75;;;624.35;;
31974;SDS011;18500;43.618;1.474;2023-11-19T16:39:14;684.38;;;637.58;;
31974;SDS011;18500;43.618;1.474;2023-11-19T16:41:40;676.35;;;630.22;;
31974;SDS011;18500;43.618;1.474;2023-11-19T16:44:06;668.72;;;623.30;;
31974;SDS011;18500;43.618;1.474;2023-11-19T16:46:32;651.67;;;608.30;;
31974;SDS011;18500;43.618;1.474;2023-11-19T16:48:58;628.10;;;586.20;;
31974;SDS011;18500;43.618;1.474;2023-11-19T16:51:24;662.83;;;617.80;;
31974;SDS011;18500;43.618;1.474;2023-11-19T16:53:49;679.63;;;632.33;;
31974;SDS011;18500;43.618;1.474;2023-11-19T16:56:15;627.72;;;585.83;;
31974;SDS011;18500;43.618;1.474;2023-11-19T16:58:43;665.28;;;618.83;;
31974;SDS011;18500;43.618;1.474;2023-11-19T17:01:09;657.70;;;610.63;;
31974;SDS011;18500;43.618;1.474;2023-11-19T17:03:38;640.70;;;596.42;;
31974;SDS011;18500;43.618;1.474;2023-11-19T17:06:04;623.65;;;582.08;;
31974;SDS011;18500;43.618;1.474;2023-11-19T17:08:30;591.30;;;551.95;;
31974;SDS011;18500;43.618;1.474;2023-11-19T17:11:02;541.85;;;507.27;;
31974;SDS011;18500;43.618;1.474;2023-11-19T17:13:31;536.05;;;501.58;;
31974;SDS011;18500;43.618;1.474;2023-11-19T17:15:57;529.90;;;495.45;;
31974;SDS011;18500;43.618;1.474;2023-11-19T17:18:23;535.10;;;500.38;;
31974;SDS011;18500;43.618;1.474;2023-11-19T17:20:49;530.78;;;495.55;;
31974;SDS011;18500;43.618;1.474;2023-11-19T17:23:15;517.42;;;482.17;;
31974;SDS011;18500;43.618;1.474;2023-11-19T17:25:41;562.63;;;524.88;;
31974;SDS011;18500;43.618;1.474;2023-11-19T17:28:07;581.10;;;539.33;;
31974;SDS011;18500;43.618;1.474;2023-11-19T17:30:34;579.63;;;540.55;;
31974;SDS011;18500;43.618;1.474;2023-11-19T17:33:00;584.75;;;544.85;;
31974;SDS011;18500;43.618;1.474;2023-11-19T17:35:26;583.08;;;542.38;;
31974;SDS011;18500;43.618;1.474;2023-11-19T17:37:52;588.05;;;546.88;;
31974;SDS011;18500;43.618;1.474;2023-11-19T17:40:18;614.15;;;569.50;;
31974;SDS011;18500;43.618;1.474;2023-11-19T17:42:44;717.35;;;662.97;;
31974;SDS011;18500;43.618;1.474;2023-11-19T17:45:10;670.88;;;622.53;;
31974;SDS011;18500;43.618;1.474;2023-11-19T17:47:35;679.58;;;629.72;;
31974;SDS011;18500;43.618;1.474;2023-11-19T17:50:01;680.75;;;631.25;;
31974;SDS011;18500;43.618;1.474;2023-11-19T17:52:28;659.42;;;613.65;;
31974;SDS011;18500;43.618;1.474;2023-11-19T17:54:53;699.35;;;651.00;;
31974;SDS011;18500;43.618;1.474;2023-11-19T17:57:19;668.15;;;622.20;;
31974;SDS011;18500;43.618;1.474;2023-11-19T17:59:45;704.05;;;655.92;;
31974;SDS011;18500;43.618;1.474;2023-11-19T18:02:14;656.30;;;611.28;;
31974;SDS011;18500;43.618;1.474;2023-11-19T18:04:44;708.08;;;658.15;;
31974;SDS011;18500;43.618;1.474;2023-11-19T18:07:10;730.33;;;679.17;;
31974;SDS011;18500;43.618;1.474;2023-11-19T18:09:35;713.25;;;662.78;;
31974;SDS011;18500;43.618;1.474;2023-11-19T18:12:02;685.40;;;637.47;;
31974;SDS011;18500;43.618;1.474;2023-11-19T18:14:29;667.08;;;619.22;;
31974;SDS011;18500;43.618;1.474;2023-11-19T18:16:54;717.95;;;667.80;;
31974;SDS011;18500;43.618;1.474;2023-11-19T18:19:20;739.28;;;688.20;;
31974;SDS011;18500;43.618;1.474;2023-11-19T18:21:46;686.47;;;639.13;;
31974;SDS011;18500;43.618;1.474;2023-11-19T18:24:11;716.22;;;666.65;;
31974;SDS011;18500;43.618;1.474;2023-11-19T18:26:39;745.53;;;693.63;;
31974;SDS011;18500;43.618;1.474;2023-11-19T18:29:05;748.95;;;697.15;;
31974;SDS011;18500;43.618;1.474;2023-11-19T18:31:30;666.67;;;622.08;;
31974;SDS011;18500;43.618;1.474;2023-11-19T18:33:57;635.30;;;592.92;;
31974;SDS011;18500;43.618;1.474;2023-11-19T18:36:23;664.45;;;620.78;;
31974;SDS011;18500;43.618;1.474;2023-11-19T18:38:49;660.30;;;617.03;;
31974;SDS011;18500;43.618;1.474;2023-11-19T18:41:15;650.97;;;608.13;;
31974;SDS011;18500;43.618;1.474;2023-11-19T18:43:41;651.95;;;609.13;;
31974;SDS011;18500;43.618;1.474;2023-11-19T18:46:06;657.58;;;614.05;;
31974;SDS011;18500;43.618;1.474;2023-11-19T18:48:33;659.55;;;616.08;;
31974;SDS011;18500;43.618;1.474;2023-11-19T18:51:00;667.88;;;623.65;;
31974;SDS011;18500;43.618;1.474;2023-11-19T18:53:26;672.40;;;628.38;;
31974;SDS011;18500;43.618;1.474;2023-11-19T18:55:52;659.25;;;615.45;;
31974;SDS011;18500;43.618;1.474;2023-11-19T18:58:18;653.65;;;611.17;;
31974;SDS011;18500;43.618;1.474;2023-11-19T19:00:43;659.83;;;616.83;;
31974;SDS011;18500;43.618;1.474;2023-11-19T19:03:09;618.83;;;578.28;;
31974;SDS011;18500;43.618;1.474;2023-11-19T19:05:38;660.10;;;616.75;;
31974;SDS011;18500;43.618;1.474;2023-11-19T19:08:04;660.70;;;618.00;;
31974;SDS011;18500;43.618;1.474;2023-11-19T19:10:30;637.75;;;597.53;;
31974;SDS011;18500;43.618;1.474;2023-11-19T19:12:56;621.15;;;581.15;;
31974;SDS011;18500;43.618;1.474;2023-11-19T19:15:22;594.10;;;555.55;;
31974;SDS011;18500;43.618;1.474;2023-11-19T19:17:50;640.30;;;599.22;;
31974;SDS011;18500;43.618;1.474;2023-11-19T19:20:16;641.75;;;600.10;;
31974;SDS011;18500;43.618;1.474;2023-11-19T19:22:41;670.30;;;624.97;;
31974;SDS011;18500;43.618;1.474;2023-11-19T19:25:07;683.65;;;637.70;;
31974;SDS011;18500;43.618;1.474;2023-11-19T19:27:33;658.33;;;613.50;;
31974;SDS011;18500;43.618;1.474;2023-11-19T19:29:59;676.35;;;629.67;;
31974;SDS011;18500;43.618;1.474;2023-11-19T19:32:24;677.38;;;630.80;;
31974;SDS011;18500;43.618;1.474;2023-11-19T19:34:50;664.13;;;618.80;;
31974;SDS011;18500;43.618;1.474;2023-11-19T19:37:16;680.13;;;634.47;;
31974;SDS011;18500;43.618;1.474;2023-11-19T19:39:41;667.28;;;622.25;;
31974;SDS011;18500;43.618;1.474;2023-11-19T19:42:07;633.13;;;590.60;;
31974;SDS011;18500;43.618;1.474;2023-11-19T19:44:34;719.03;;;668.78;;
31974;SDS011;18500;43.618;1.474;2023-11-19T19:47:00;685.17;;;638.25;;
31974;SDS011;18500;43.618;1.474;2023-11-19T19:49:26;720.40;;;669.90;;
31974;SDS011;18500;43.618;1.474;2023-11-19T19:51:54;763.45;;;709.30;;
31974;SDS011;18500;43.618;1.474;2023-11-19T19:54:20;762.38;;;708.15;;
31974;SDS011;18500;43.618;1.474;2023-11-19T19:56:46;764.92;;;709.35;;
31974;SDS011;18500;43.618;1.474;2023-11-19T19:59:12;741.88;;;688.58;;
31974;SDS011;18500;43.618;1.474;2023-11-19T20:01:38;749.80;;;696.67;;
31974;SDS011;18500;43.618;1.474;2023-11-19T20:04:03;710.47;;;660.08;;
31974;SDS011;18500;43.618;1.474;2023-11-19T20:06:38;734.95;;;683.10;;
31974;SDS011;18500;43.618;1.474;2023-11-19T20:09:04;705.00;;;653.63;;
31974;SDS011;18500;43.618;1.474;2023-11-19T20:11:31;676.28;;;627.67;;
31974;SDS011;18500;43.618;1.474;2023-11-19T20:13:59;680.80;;;633.33;;
31974;SDS011;18500;43.618;1.474;2023-11-19T20:16:25;661.83;;;616.15;;
31974;SDS011;18500;43.618;1.474;2023-11-19T20:18:50;708.30;;;658.10;;
31974;SDS011;18500;43.618;1.474;2023-11-19T20:21:16;708.42;;;658.15;;
31974;SDS011;18500;43.618;1.474;2023-11-19T20:23:42;689.65;;;641.25;;
31974;SDS011;18500;43.618;1.474;2023-11-19T20:26:07;687.42;;;639.78;;
31974;SDS011;18500;43.618;1.474;2023-11-19T20:28:33;670.90;;;624.50;;
31974;SDS011;18500;43.618;1.474;2023-11-19T20:30:58;666.70;;;620.92;;
31974;SDS011;18500;43.618;1.474;2023-11-19T20:33:25;710.17;;;660.78;;
31974;SDS011;18500;43.618;1.474;2023-11-19T20:35:51;683.75;;;636.63;;
31974;SDS011;18500;43.618;1.474;2023-11-19T20:38:16;697.97;;;649.30;;
31974;SDS011;18500;43.618;1.474;2023-11-19T20:40:42;635.83;;;592.33;;
31974;SDS011;18500;43.618;1.474;2023-11-19T20:43:07;686.30;;;638.17;;
31974;SDS011;18500;43.618;1.474;2023-11-19T20:45:33;660.42;;;614.72;;
31974;SDS011;18500;43.618;1.474;2023-11-19T20:48:00;626.60;;;583.80;;
31974;SDS011;18500;43.618;1.474;2023-11-19T20:50:25;637.50;;;593.60;;
31974;SDS011;18500;43.618;1.474;2023-11-19T20:52:52;647.30;;;602.88;;
31974;SDS011;18500;43.618;1.474;2023-11-19T20:55:18;645.42;;;600.45;;
31974;SDS011;18500;43.618;1.474;2023-11-19T20:57:44;653.50;;;608.55;;
31974;SDS011;18500;43.618;1.474;2023-11-19T21:00:10;667.65;;;621.10;;
31974;SDS011;18500;43.618;1.474;2023-11-19T21:02:39;668.28;;;621.15;;
31974;SDS011;18500;43.618;1.474;2023-11-19T21:05:05;650.33;;;606.08;;
31974;SDS011;18500;43.618;1.474;2023-11-19T21:07:32;664.28;;;618.75;;
31974;SDS011;18500;43.618;1.474;2023-11-19T21:09:57;654.10;;;608.60;;
31974;SDS011;18500;43.618;1.474;2023-11-19T21:12:23;664.45;;;618.05;;
31974;SDS011;18500;43.618;1.474;2023-11-19T21:14:49;657.10;;;611.75;;
31974;SDS011;18500;43.618;1.474;2023-11-19T21:17:14;628.42;;;585.88;;
31974;SDS011;18500;43.618;1.474;2023-11-19T21:19:40;656.75;;;611.53;;
31974;SDS011;18500;43.618;1.474;2023-11-19T21:22:07;663.97;;;618.05;;
31974;SDS011;18500;43.618;1.474;2023-11-19T21:24:34;713.53;;;664.88;;
31974;SDS011;18500;43.618;1.474;2023-11-19T21:26:59;683.83;;;636.45;;
31974;SDS011;18500;43.618;1.474;2023-11-19T21:29:25;697.70;;;650.05;;
31974;SDS011;18500;43.618;1.474;2023-11-19T21:31:51;679.00;;;632.60;;
31974;SDS011;18500;43.618;1.474;2023-11-19T21:34:17;692.45;;;644.85;;
31974;SDS011;18500;43.618;1.474;2023-11-19T21:36:42;688.53;;;641.55;;
31974;SDS011;18500;43.618;1.474;2023-11-19T21:39:08;699.40;;;651.60;;
31974;SDS011;18500;43.618;1.474;2023-11-19T21:41:34;726.80;;;675.65;;
31974;SDS011;18500;43.618;1.474;2023-11-19T21:44:00;685.33;;;637.40;;
31974;SDS011;18500;43.618;1.474;2023-11-19T21:46:25;665.10;;;618.00;;
31974;SDS011;18500;43.618;1.474;2023-11-19T21:48:51;617.90;;;574.20;;
31974;SDS011;18500;43.618;1.474;2023-11-19T21:51:17;655.50;;;609.70;;
31974;SDS011;18500;43.618;1.474;2023-11-19T21:53:42;645.60;;;600.35;;
31974;SDS011;18500;43.618;1.474;2023-11-19T21:56:08;633.70;;;589.83;;
31974;SDS011;18500;43.618;1.474;2023-11-19T21:58:33;576.65;;;536.85;;
31974;SDS011;18500;43.618;1.474;2023-11-19T22:00:59;605.30;;;563.03;;
31974;SDS011;18500;43.618;1.474;2023-11-19T22:03:26;638.38;;;593.65;;
31974;SDS011;18500;43.618;1.474;2023-11-19T22:05:52;599.95;;;558.28;;
31974;SDS011;18500;43.618;1.474;2023-11-19T22:08:17;579.60;;;539.85;;
31974;SDS011;18500;43.618;1.474;2023-11-19T22:10:43;619.70;;;577.50;;
31974;SDS011;18500;43.618;1.474;2023-11-19T22:13:09;598.72;;;557.92;;
31974;SDS011;18500;43.618;1.474;2023-11-19T22:15:35;600.67;;;560.08;;
31974;SDS011;18500;43.618;1.474;2023-11-19T22:18:00;572.10;;;533.25;;
31974;SDS011;18500;43.618;1.474;2023-11-19T22:20:26;626.17;;;582.85;;
31974;SDS011;18500;43.618;1.474;2023-11-19T22:22:53;610.30;;;567.85;;
31974;SDS011;18500;43.618;1.474;2023-11-19T22:25:19;633.38;;;588.78;;
31974;SDS011;18500;43.618;1.474;2023-11-19T22:27:49;575.03;;;535.10;;
31974;SDS011;18500;43.618;1.474;2023-11-19T22:30:15;591.25;;;549.88;;
31974;SDS011;18500;43.618;1.474;2023-11-19T22:32:41;622.70;;;578.75;;
